< < Back
Terminal Aerodrome Forecast


Current Version              Previous Versions:   1  2  3  4  5  6  7  8  9  

Terminal Aerodrome Forecast

817
FTUS42 KCAE 281700
TAFAGS
TAF
KAGS 281720Z 2818/2918 VRB03KT P6SM SKC
     FM291400 18006KT P6SM SKC
     FM291700 VRB03KT P6SM SKC=

Latest METAR

248
SAUS70 KWBC 290300 RRJ
MTRAGS
METAR KAGS 290253Z 00000KT 10SM CLR M01/M03 A3033 RMK AO2 SLP273
T10061028 50001


USA.gov is the U.S. government's official web portal to all federal, state and local government web resources and services.